sensor_id;sensor_type;location;lat;lon;timestamp;P1;durP1;ratioP1;P2;durP2;ratioP2
56363;SDS011;42261;52.094;4.326;2022-12-08T00:02:06;2.53;;;0.20;;
56363;SDS011;42261;52.094;4.326;2022-12-08T00:04:50;3.13;;;0.55;;
56363;SDS011;42261;52.094;4.326;2022-12-08T00:07:54;2.97;;;0.35;;
56363;SDS011;42261;52.094;4.326;2022-12-08T00:11:17;0.57;;;0.20;;
56363;SDS011;42261;52.094;4.326;2022-12-08T00:14:02;1.65;;;0.15;;
56363;SDS011;42261;52.094;4.326;2022-12-08T00:16:46;1.75;;;0.30;;
56363;SDS011;42261;52.094;4.326;2022-12-08T00:19:31;1.85;;;0.40;;
56363;SDS011;42261;52.094;4.326;2022-12-08T00:22:17;3.22;;;0.43;;
56363;SDS011;42261;52.094;4.326;2022-12-08T00:25:03;3.25;;;0.30;;
56363;SDS011;42261;52.094;4.326;2022-12-08T00:27:47;0.75;;;0.15;;
56363;SDS011;42261;52.094;4.326;2022-12-08T00:30:31;0.30;;;0.30;;
56363;SDS011;42261;52.094;4.326;2022-12-08T00:33:15;0.45;;;0.20;;
56363;SDS011;42261;52.094;4.326;2022-12-08T00:36:06;2.70;;;0.30;;
56363;SDS011;42261;52.094;4.326;2022-12-08T00:38:51;1.88;;;0.30;;
56363;SDS011;42261;52.094;4.326;2022-12-08T00:41:35;0.77;;;0.28;;
56363;SDS011;42261;52.094;4.326;2022-12-08T00:44:39;5.05;;;0.20;;
56363;SDS011;42261;52.094;4.326;2022-12-08T00:47:24;2.55;;;0.40;;
56363;SDS011;42261;52.094;4.326;2022-12-08T00:50:09;1.10;;;0.28;;
56363;SDS011;42261;52.094;4.326;2022-12-08T00:52:54;1.67;;;0.30;;
56363;SDS011;42261;52.094;4.326;2022-12-08T00:55:38;0.63;;;0.30;;
56363;SDS011;42261;52.094;4.326;2022-12-08T00:58:23;2.28;;;0.50;;
56363;SDS011;42261;52.094;4.326;2022-12-08T01:01:11;2.42;;;0.40;;
56363;SDS011;42261;52.094;4.326;2022-12-08T01:03:56;0.40;;;0.32;;
56363;SDS011;42261;52.094;4.326;2022-12-08T01:06:40;1.40;;;0.20;;
56363;SDS011;42261;52.094;4.326;2022-12-08T01:09:25;5.38;;;0.30;;
56363;SDS011;42261;52.094;4.326;2022-12-08T01:12:09;3.30;;;0.22;;
56363;SDS011;42261;52.094;4.326;2022-12-08T01:14:54;0.73;;;0.20;;
56363;SDS011;42261;52.094;4.326;2022-12-08T01:17:38;1.05;;;0.30;;
56363;SDS011;42261;52.094;4.326;2022-12-08T01:20:22;1.38;;;0.30;;
56363;SDS011;42261;52.094;4.326;2022-12-08T01:23:06;2.35;;;0.38;;
56363;SDS011;42261;52.094;4.326;2022-12-08T01:25:51;3.33;;;0.50;;
56363;SDS011;42261;52.094;4.326;2022-12-08T01:28:35;1.35;;;0.30;;
56363;SDS011;42261;52.094;4.326;2022-12-08T01:31:19;2.05;;;0.38;;
56363;SDS011;42261;52.094;4.326;2022-12-08T01:34:04;1.13;;;0.30;;
56363;SDS011;42261;52.094;4.326;2022-12-08T01:37:08;2.13;;;0.45;;
56363;SDS011;42261;52.094;4.326;2022-12-08T01:39:53;7.53;;;0.52;;
56363;SDS011;42261;52.094;4.326;2022-12-08T01:42:37;3.42;;;0.90;;
56363;SDS011;42261;52.094;4.326;2022-12-08T01:45:22;6.20;;;0.52;;
56363;SDS011;42261;52.094;4.326;2022-12-08T01:48:17;1.40;;;0.40;;
56363;SDS011;42261;52.094;4.326;2022-12-08T01:51:03;1.73;;;0.22;;
56363;SDS011;42261;52.094;4.326;2022-12-08T01:53:48;2.47;;;0.30;;
56363;SDS011;42261;52.094;4.326;2022-12-08T01:56:55;2.30;;;0.40;;
56363;SDS011;42261;52.094;4.326;2022-12-08T01:59:46;3.15;;;0.65;;
56363;SDS011;42261;52.094;4.326;2022-12-08T02:02:35;3.33;;;0.68;;
56363;SDS011;42261;52.094;4.326;2022-12-08T02:05:32;3.00;;;0.50;;
56363;SDS011;42261;52.094;4.326;2022-12-08T02:08:18;6.65;;;0.82;;
56363;SDS011;42261;52.094;4.326;2022-12-08T02:11:04;2.50;;;0.38;;
56363;SDS011;42261;52.094;4.326;2022-12-08T02:13:48;4.72;;;0.40;;
56363;SDS011;42261;52.094;4.326;2022-12-08T02:16:51;6.13;;;0.52;;
56363;SDS011;42261;52.094;4.326;2022-12-08T02:23:00;3.55;;;0.40;;
56363;SDS011;42261;52.094;4.326;2022-12-08T02:29:30;3.30;;;0.65;;
56363;SDS011;42261;52.094;4.326;2022-12-08T02:45:11;5.40;;;0.30;;
56363;SDS011;42261;52.094;4.326;2022-12-08T02:47:59;2.05;;;0.20;;
56363;SDS011;42261;52.094;4.326;2022-12-08T02:50:43;3.92;;;0.50;;
56363;SDS011;42261;52.094;4.326;2022-12-08T02:53:28;4.25;;;0.50;;
56363;SDS011;42261;52.094;4.326;2022-12-08T02:59:52;7.53;;;0.98;;
56363;SDS011;42261;52.094;4.326;2022-12-08T03:12:05;3.17;;;0.30;;
56363;SDS011;42261;52.094;4.326;2022-12-08T03:17:52;3.22;;;0.43;;
56363;SDS011;42261;52.094;4.326;2022-12-08T03:20:40;3.03;;;0.38;;
56363;SDS011;42261;52.094;4.326;2022-12-08T03:23:24;4.22;;;0.40;;
56363;SDS011;42261;52.094;4.326;2022-12-08T03:26:12;7.13;;;0.55;;
56363;SDS011;42261;52.094;4.326;2022-12-08T03:29:05;1.83;;;0.50;;
56363;SDS011;42261;52.094;4.326;2022-12-08T03:31:54;5.35;;;0.95;;
56363;SDS011;42261;52.094;4.326;2022-12-08T03:34:41;4.68;;;0.50;;
56363;SDS011;42261;52.094;4.326;2022-12-08T03:37:27;3.50;;;0.30;;
56363;SDS011;42261;52.094;4.326;2022-12-08T03:40:13;0.65;;;0.20;;
56363;SDS011;42261;52.094;4.326;2022-12-08T03:45:45;3.67;;;0.50;;
56363;SDS011;42261;52.094;4.326;2022-12-08T03:48:29;4.85;;;0.43;;
56363;SDS011;42261;52.094;4.326;2022-12-08T03:51:13;2.45;;;0.20;;
56363;SDS011;42261;52.094;4.326;2022-12-08T03:53:59;3.85;;;0.43;;
56363;SDS011;42261;52.094;4.326;2022-12-08T03:56:43;0.80;;;0.30;;
56363;SDS011;42261;52.094;4.326;2022-12-08T03:59:27;2.47;;;0.30;;
56363;SDS011;42261;52.094;4.326;2022-12-08T04:02:11;2.05;;;0.43;;
56363;SDS011;42261;52.094;4.326;2022-12-08T04:04:56;0.68;;;0.22;;
56363;SDS011;42261;52.094;4.326;2022-12-08T04:07:40;1.63;;;0.35;;
56363;SDS011;42261;52.094;4.326;2022-12-08T04:10:24;3.78;;;0.43;;
56363;SDS011;42261;52.094;4.326;2022-12-08T04:13:09;2.15;;;0.30;;
56363;SDS011;42261;52.094;4.326;2022-12-08T04:15:52;10.73;;;0.40;;
56363;SDS011;42261;52.094;4.326;2022-12-08T04:18:37;7.50;;;0.55;;
56363;SDS011;42261;52.094;4.326;2022-12-08T04:21:21;4.60;;;0.28;;
56363;SDS011;42261;52.094;4.326;2022-12-08T04:24:06;2.10;;;0.40;;
56363;SDS011;42261;52.094;4.326;2022-12-08T04:26:50;1.02;;;0.20;;
56363;SDS011;42261;52.094;4.326;2022-12-08T04:29:34;1.83;;;0.40;;
56363;SDS011;42261;52.094;4.326;2022-12-08T04:32:18;1.27;;;0.20;;
56363;SDS011;42261;52.094;4.326;2022-12-08T04:35:02;12.25;;;0.57;;
56363;SDS011;42261;52.094;4.326;2022-12-08T04:37:47;2.42;;;0.43;;
56363;SDS011;42261;52.094;4.326;2022-12-08T04:40:31;3.83;;;0.32;;
56363;SDS011;42261;52.094;4.326;2022-12-08T04:43:16;1.75;;;0.15;;
56363;SDS011;42261;52.094;4.326;2022-12-08T04:46:00;1.55;;;0.20;;
56363;SDS011;42261;52.094;4.326;2022-12-08T04:48:44;1.08;;;0.40;;
56363;SDS011;42261;52.094;4.326;2022-12-08T04:51:28;0.38;;;0.30;;
56363;SDS011;42261;52.094;4.326;2022-12-08T04:54:13;1.25;;;0.32;;
56363;SDS011;42261;52.094;4.326;2022-12-08T04:56:57;2.15;;;0.30;;
56363;SDS011;42261;52.094;4.326;2022-12-08T04:59:41;2.95;;;0.20;;
56363;SDS011;42261;52.094;4.326;2022-12-08T05:02:25;1.02;;;0.30;;
56363;SDS011;42261;52.094;4.326;2022-12-08T05:05:09;1.38;;;0.20;;
56363;SDS011;42261;52.094;4.326;2022-12-08T05:07:53;1.88;;;0.45;;
56363;SDS011;42261;52.094;4.326;2022-12-08T05:10:38;0.65;;;0.30;;
56363;SDS011;42261;52.094;4.326;2022-12-08T05:13:22;1.42;;;0.20;;
56363;SDS011;42261;52.094;4.326;2022-12-08T05:16:07;1.75;;;0.95;;
56363;SDS011;42261;52.094;4.326;2022-12-08T05:18:55;2.50;;;0.40;;
56363;SDS011;42261;52.094;4.326;2022-12-08T05:21:39;5.90;;;0.73;;
56363;SDS011;42261;52.094;4.326;2022-12-08T05:24:24;5.43;;;0.75;;
56363;SDS011;42261;52.094;4.326;2022-12-08T05:27:08;2.30;;;0.35;;
56363;SDS011;42261;52.094;4.326;2022-12-08T05:29:53;3.63;;;0.65;;
56363;SDS011;42261;52.094;4.326;2022-12-08T05:32:38;1.60;;;0.30;;
56363;SDS011;42261;52.094;4.326;2022-12-08T05:35:23;0.32;;;0.20;;
56363;SDS011;42261;52.094;4.326;2022-12-08T05:38:07;4.65;;;0.32;;
56363;SDS011;42261;52.094;4.326;2022-12-08T05:40:51;2.95;;;0.40;;
56363;SDS011;42261;52.094;4.326;2022-12-08T05:43:35;3.20;;;0.30;;
56363;SDS011;42261;52.094;4.326;2022-12-08T05:46:20;2.75;;;0.40;;
56363;SDS011;42261;52.094;4.326;2022-12-08T05:49:04;1.40;;;0.40;;
56363;SDS011;42261;52.094;4.326;2022-12-08T05:51:49;3.60;;;0.40;;
56363;SDS011;42261;52.094;4.326;2022-12-08T05:54:34;0.98;;;0.20;;
56363;SDS011;42261;52.094;4.326;2022-12-08T05:57:18;5.75;;;0.65;;
56363;SDS011;42261;52.094;4.326;2022-12-08T06:00:03;6.70;;;0.55;;
56363;SDS011;42261;52.094;4.326;2022-12-08T06:02:48;4.07;;;0.80;;
56363;SDS011;42261;52.094;4.326;2022-12-08T06:05:32;1.67;;;0.30;;
56363;SDS011;42261;52.094;4.326;2022-12-08T06:08:17;4.93;;;0.50;;
56363;SDS011;42261;52.094;4.326;2022-12-08T06:11:01;1.73;;;0.88;;
56363;SDS011;42261;52.094;4.326;2022-12-08T06:13:45;6.32;;;0.50;;
56363;SDS011;42261;52.094;4.326;2022-12-08T06:16:29;3.25;;;1.10;;
56363;SDS011;42261;52.094;4.326;2022-12-08T06:19:14;1.40;;;0.40;;
56363;SDS011;42261;52.094;4.326;2022-12-08T06:21:58;0.43;;;0.10;;
56363;SDS011;42261;52.094;4.326;2022-12-08T06:24:42;1.65;;;0.30;;
56363;SDS011;42261;52.094;4.326;2022-12-08T06:27:26;1.00;;;0.20;;
56363;SDS011;42261;52.094;4.326;2022-12-08T06:30:11;2.75;;;0.70;;
56363;SDS011;42261;52.094;4.326;2022-12-08T06:32:55;4.88;;;0.40;;
56363;SDS011;42261;52.094;4.326;2022-12-08T06:35:41;3.00;;;0.50;;
56363;SDS011;42261;52.094;4.326;2022-12-08T06:38:27;2.70;;;0.60;;
56363;SDS011;42261;52.094;4.326;2022-12-08T06:41:11;0.88;;;0.22;;
56363;SDS011;42261;52.094;4.326;2022-12-08T06:43:56;3.58;;;0.47;;
56363;SDS011;42261;52.094;4.326;2022-12-08T06:46:41;1.65;;;0.43;;
56363;SDS011;42261;52.094;4.326;2022-12-08T06:49:26;3.63;;;0.80;;
56363;SDS011;42261;52.094;4.326;2022-12-08T06:52:10;2.55;;;0.50;;
56363;SDS011;42261;52.094;4.326;2022-12-08T06:54:54;0.63;;;0.28;;
56363;SDS011;42261;52.094;4.326;2022-12-08T06:57:38;4.00;;;0.50;;
56363;SDS011;42261;52.094;4.326;2022-12-08T07:00:22;5.70;;;0.40;;
56363;SDS011;42261;52.094;4.326;2022-12-08T07:03:08;0.85;;;0.43;;
56363;SDS011;42261;52.094;4.326;2022-12-08T07:05:54;1.90;;;0.22;;
56363;SDS011;42261;52.094;4.326;2022-12-08T07:08:39;3.45;;;0.40;;
56363;SDS011;42261;52.094;4.326;2022-12-08T07:11:23;4.95;;;1.20;;
56363;SDS011;42261;52.094;4.326;2022-12-08T07:14:07;2.35;;;0.40;;
56363;SDS011;42261;52.094;4.326;2022-12-08T07:16:51;1.33;;;0.47;;
56363;SDS011;42261;52.094;4.326;2022-12-08T07:19:35;4.05;;;0.82;;
56363;SDS011;42261;52.094;4.326;2022-12-08T07:22:19;1.52;;;0.22;;
56363;SDS011;42261;52.094;4.326;2022-12-08T07:25:04;1.05;;;0.20;;
56363;SDS011;42261;52.094;4.326;2022-12-08T07:27:49;0.98;;;0.40;;
56363;SDS011;42261;52.094;4.326;2022-12-08T07:30:35;0.52;;;0.20;;
56363;SDS011;42261;52.094;4.326;2022-12-08T07:33:19;3.42;;;0.30;;
56363;SDS011;42261;52.094;4.326;2022-12-08T07:36:04;2.05;;;0.45;;
56363;SDS011;42261;52.094;4.326;2022-12-08T07:38:50;1.33;;;0.38;;
56363;SDS011;42261;52.094;4.326;2022-12-08T07:41:36;2.20;;;0.50;;
56363;SDS011;42261;52.094;4.326;2022-12-08T07:44:20;4.80;;;0.30;;
56363;SDS011;42261;52.094;4.326;2022-12-08T07:47:04;0.93;;;0.40;;
56363;SDS011;42261;52.094;4.326;2022-12-08T07:49:48;2.15;;;0.30;;
56363;SDS011;42261;52.094;4.326;2022-12-08T07:52:33;1.20;;;0.30;;
56363;SDS011;42261;52.094;4.326;2022-12-08T07:55:18;1.13;;;0.30;;
56363;SDS011;42261;52.094;4.326;2022-12-08T07:58:02;1.85;;;0.40;;
56363;SDS011;42261;52.094;4.326;2022-12-08T08:00:46;0.63;;;0.40;;
56363;SDS011;42261;52.094;4.326;2022-12-08T08:03:32;1.60;;;0.20;;
56363;SDS011;42261;52.094;4.326;2022-12-08T08:06:16;1.70;;;0.30;;
56363;SDS011;42261;52.094;4.326;2022-12-08T08:09:01;2.72;;;0.20;;
56363;SDS011;42261;52.094;4.326;2022-12-08T08:11:45;2.50;;;0.40;;
56363;SDS011;42261;52.094;4.326;2022-12-08T08:14:31;6.07;;;0.40;;
56363;SDS011;42261;52.094;4.326;2022-12-08T08:17:15;2.88;;;0.50;;
56363;SDS011;42261;52.094;4.326;2022-12-08T08:20:01;3.60;;;0.88;;
56363;SDS011;42261;52.094;4.326;2022-12-08T08:22:50;4.00;;;1.13;;
56363;SDS011;42261;52.094;4.326;2022-12-08T08:25:34;3.20;;;0.40;;
56363;SDS011;42261;52.094;4.326;2022-12-08T08:28:19;1.02;;;0.50;;
56363;SDS011;42261;52.094;4.326;2022-12-08T08:31:04;0.65;;;0.47;;
56363;SDS011;42261;52.094;4.326;2022-12-08T08:33:48;1.40;;;0.17;;
56363;SDS011;42261;52.094;4.326;2022-12-08T08:36:32;1.13;;;0.20;;
56363;SDS011;42261;52.094;4.326;2022-12-08T08:39:16;5.00;;;0.28;;
56363;SDS011;42261;52.094;4.326;2022-12-08T08:42:01;2.72;;;0.22;;
56363;SDS011;42261;52.094;4.326;2022-12-08T08:45:05;4.68;;;0.30;;
56363;SDS011;42261;52.094;4.326;2022-12-08T08:47:50;0.35;;;0.20;;
56363;SDS011;42261;52.094;4.326;2022-12-08T08:50:33;5.05;;;0.43;;
56363;SDS011;42261;52.094;4.326;2022-12-08T08:53:17;2.30;;;0.17;;
56363;SDS011;42261;52.094;4.326;2022-12-08T08:56:03;0.75;;;0.10;;
56363;SDS011;42261;52.094;4.326;2022-12-08T08:58:52;1.88;;;0.20;;
56363;SDS011;42261;52.094;4.326;2022-12-08T09:01:37;0.82;;;0.47;;
56363;SDS011;42261;52.094;4.326;2022-12-08T09:04:21;2.17;;;0.30;;
56363;SDS011;42261;52.094;4.326;2022-12-08T09:07:06;1.25;;;0.28;;
56363;SDS011;42261;52.094;4.326;2022-12-08T09:09:50;1.85;;;0.22;;
56363;SDS011;42261;52.094;4.326;2022-12-08T09:12:34;1.15;;;0.40;;
56363;SDS011;42261;52.094;4.326;2022-12-08T09:15:19;0.85;;;0.38;;
56363;SDS011;42261;52.094;4.326;2022-12-08T09:18:03;1.70;;;0.40;;
56363;SDS011;42261;52.094;4.326;2022-12-08T09:20:49;0.95;;;0.35;;
56363;SDS011;42261;52.094;4.326;2022-12-08T09:23:34;1.35;;;0.40;;
56363;SDS011;42261;52.094;4.326;2022-12-08T09:26:18;3.97;;;0.55;;
56363;SDS011;42261;52.094;4.326;2022-12-08T09:29:05;2.35;;;0.43;;
56363;SDS011;42261;52.094;4.326;2022-12-08T09:31:49;5.28;;;1.58;;
56363;SDS011;42261;52.094;4.326;2022-12-08T09:34:34;2.42;;;0.75;;
56363;SDS011;42261;52.094;4.326;2022-12-08T09:37:18;2.75;;;0.70;;
56363;SDS011;42261;52.094;4.326;2022-12-08T09:40:02;1.90;;;0.40;;
56363;SDS011;42261;52.094;4.326;2022-12-08T09:45:48;1.15;;;0.50;;
56363;SDS011;42261;52.094;4.326;2022-12-08T09:48:36;2.03;;;0.55;;
56363;SDS011;42261;52.094;4.326;2022-12-08T09:51:25;3.57;;;0.33;;
56363;SDS011;42261;52.094;4.326;2022-12-08T09:57:27;1.50;;;0.43;;
56363;SDS011;42261;52.094;4.326;2022-12-08T10:00:14;2.65;;;0.40;;
56363;SDS011;42261;52.094;4.326;2022-12-08T10:02:58;1.20;;;0.40;;
56363;SDS011;42261;52.094;4.326;2022-12-08T10:05:46;4.18;;;1.05;;
56363;SDS011;42261;52.094;4.326;2022-12-08T10:08:40;2.03;;;0.95;;
56363;SDS011;42261;52.094;4.326;2022-12-08T10:11:31;2.60;;;0.60;;
56363;SDS011;42261;52.094;4.326;2022-12-08T10:17:36;2.28;;;0.60;;
56363;SDS011;42261;52.094;4.326;2022-12-08T10:20:23;2.63;;;0.77;;
56363;SDS011;42261;52.094;4.326;2022-12-08T10:25:57;1.58;;;0.35;;
56363;SDS011;42261;52.094;4.326;2022-12-08T10:28:45;2.72;;;0.57;;
56363;SDS011;42261;52.094;4.326;2022-12-08T10:31:29;3.47;;;0.60;;
56363;SDS011;42261;52.094;4.326;2022-12-08T10:34:16;3.05;;;0.40;;
56363;SDS011;42261;52.094;4.326;2022-12-08T10:37:02;2.10;;;0.70;;
56363;SDS011;42261;52.094;4.326;2022-12-08T10:39:57;2.22;;;0.57;;
56363;SDS011;42261;52.094;4.326;2022-12-08T10:42:50;1.33;;;0.47;;
56363;SDS011;42261;52.094;4.326;2022-12-08T10:45:36;4.72;;;0.22;;
56363;SDS011;42261;52.094;4.326;2022-12-08T10:48:28;1.25;;;0.30;;
56363;SDS011;42261;52.094;4.326;2022-12-08T10:51:34;0.85;;;0.35;;
56363;SDS011;42261;52.094;4.326;2022-12-08T10:54:28;3.13;;;0.60;;
56363;SDS011;42261;52.094;4.326;2022-12-08T10:57:20;3.08;;;0.55;;
56363;SDS011;42261;52.094;4.326;2022-12-08T11:00:05;0.90;;;0.80;;
56363;SDS011;42261;52.094;4.326;2022-12-08T11:02:51;2.78;;;0.20;;
56363;SDS011;42261;52.094;4.326;2022-12-08T11:05:43;1.80;;;0.38;;
56363;SDS011;42261;52.094;4.326;2022-12-08T11:08:27;0.50;;;0.43;;
56363;SDS011;42261;52.094;4.326;2022-12-08T11:11:12;1.05;;;0.45;;
56363;SDS011;42261;52.094;4.326;2022-12-08T11:13:57;0.75;;;0.40;;
56363;SDS011;42261;52.094;4.326;2022-12-08T11:16:41;1.52;;;0.32;;
56363;SDS011;42261;52.094;4.326;2022-12-08T11:19:25;1.02;;;0.50;;
56363;SDS011;42261;52.094;4.326;2022-12-08T11:22:29;3.13;;;0.57;;
56363;SDS011;42261;52.094;4.326;2022-12-08T11:28:04;1.35;;;0.50;;
56363;SDS011;42261;52.094;4.326;2022-12-08T11:34:03;0.60;;;0.22;;
56363;SDS011;42261;52.094;4.326;2022-12-08T11:36:49;2.05;;;0.65;;
56363;SDS011;42261;52.094;4.326;2022-12-08T11:39:35;1.30;;;0.47;;
56363;SDS011;42261;52.094;4.326;2022-12-08T11:42:29;1.73;;;0.40;;
56363;SDS011;42261;52.094;4.326;2022-12-08T11:45:19;4.22;;;0.50;;
56363;SDS011;42261;52.094;4.326;2022-12-08T11:51:09;3.15;;;0.70;;
56363;SDS011;42261;52.094;4.326;2022-12-08T11:54:31;2.80;;;0.68;;
56363;SDS011;42261;52.094;4.326;2022-12-08T11:57:18;2.03;;;0.60;;
56363;SDS011;42261;52.094;4.326;2022-12-08T12:00:05;1.20;;;0.63;;
56363;SDS011;42261;52.094;4.326;2022-12-08T12:03:03;4.40;;;0.77;;
56363;SDS011;42261;52.094;4.326;2022-12-08T12:06:08;1.00;;;0.60;;
56363;SDS011;42261;52.094;4.326;2022-12-08T12:09:10;1.73;;;0.73;;
56363;SDS011;42261;52.094;4.326;2022-12-08T12:12:04;2.13;;;0.80;;
56363;SDS011;42261;52.094;4.326;2022-12-08T12:24:31;3.40;;;0.90;;
56363;SDS011;42261;52.094;4.326;2022-12-08T12:30:07;3.63;;;1.00;;
56363;SDS011;42261;52.094;4.326;2022-12-08T12:33:00;2.83;;;1.40;;
56363;SDS011;42261;52.094;4.326;2022-12-08T12:35:45;4.35;;;1.10;;
56363;SDS011;42261;52.094;4.326;2022-12-08T12:42:03;2.38;;;1.00;;
56363;SDS011;42261;52.094;4.326;2022-12-08T12:44:48;5.85;;;1.45;;
56363;SDS011;42261;52.094;4.326;2022-12-08T12:50:47;2.20;;;1.10;;
56363;SDS011;42261;52.094;4.326;2022-12-08T12:59:43;3.38;;;1.08;;
56363;SDS011;42261;52.094;4.326;2022-12-08T13:05:49;1.88;;;1.20;;
56363;SDS011;42261;52.094;4.326;2022-12-08T13:08:34;2.88;;;1.83;;
56363;SDS011;42261;52.094;4.326;2022-12-08T13:11:19;3.00;;;1.50;;
56363;SDS011;42261;52.094;4.326;2022-12-08T13:14:04;3.20;;;1.20;;
56363;SDS011;42261;52.094;4.326;2022-12-08T13:16:48;7.15;;;1.30;;
56363;SDS011;42261;52.094;4.326;2022-12-08T13:19:35;3.95;;;1.10;;
56363;SDS011;42261;52.094;4.326;2022-12-08T13:28:28;1.52;;;0.90;;
56363;SDS011;42261;52.094;4.326;2022-12-08T13:37:27;2.95;;;1.00;;
56363;SDS011;42261;52.094;4.326;2022-12-08T13:40:15;2.47;;;1.05;;
56363;SDS011;42261;52.094;4.326;2022-12-08T13:46:13;5.90;;;1.23;;
56363;SDS011;42261;52.094;4.326;2022-12-08T13:48:59;2.00;;;1.08;;
56363;SDS011;42261;52.094;4.326;2022-12-08T13:51:45;2.20;;;1.38;;
56363;SDS011;42261;52.094;4.326;2022-12-08T13:54:31;2.30;;;1.02;;
56363;SDS011;42261;52.094;4.326;2022-12-08T13:57:26;1.83;;;1.25;;
56363;SDS011;42261;52.094;4.326;2022-12-08T14:00:14;4.45;;;1.23;;
56363;SDS011;42261;52.094;4.326;2022-12-08T14:03:01;1.48;;;1.00;;
56363;SDS011;42261;52.094;4.326;2022-12-08T14:05:45;2.55;;;1.08;;
56363;SDS011;42261;52.094;4.326;2022-12-08T14:08:31;3.67;;;1.65;;
56363;SDS011;42261;52.094;4.326;2022-12-08T14:11:59;2.38;;;1.10;;
56363;SDS011;42261;52.094;4.326;2022-12-08T14:14:27;4.38;;;1.52;;
56363;SDS011;42261;52.094;4.326;2022-12-08T14:17:14;5.28;;;1.50;;
56363;SDS011;42261;52.094;4.326;2022-12-08T14:23:14;3.55;;;1.98;;
56363;SDS011;42261;52.094;4.326;2022-12-08T14:26:02;5.03;;;1.58;;
56363;SDS011;42261;52.094;4.326;2022-12-08T14:28:47;2.22;;;1.60;;
56363;SDS011;42261;52.094;4.326;2022-12-08T14:31:32;1.73;;;1.20;;
56363;SDS011;42261;52.094;4.326;2022-12-08T14:34:17;5.60;;;2.22;;
56363;SDS011;42261;52.094;4.326;2022-12-08T14:37:01;5.13;;;1.80;;
56363;SDS011;42261;52.094;4.326;2022-12-08T14:39:46;2.22;;;1.50;;
56363;SDS011;42261;52.094;4.326;2022-12-08T14:42:35;2.72;;;1.30;;
56363;SDS011;42261;52.094;4.326;2022-12-08T14:45:26;5.53;;;1.23;;
56363;SDS011;42261;52.094;4.326;2022-12-08T14:54:07;1.83;;;1.13;;
56363;SDS011;42261;52.094;4.326;2022-12-08T14:56:54;2.90;;;1.00;;
56363;SDS011;42261;52.094;4.326;2022-12-08T14:59:40;2.47;;;0.63;;
56363;SDS011;42261;52.094;4.326;2022-12-08T15:02:44;2.50;;;0.50;;
56363;SDS011;42261;52.094;4.326;2022-12-08T15:05:29;0.68;;;0.50;;
56363;SDS011;42261;52.094;4.326;2022-12-08T15:08:15;0.70;;;0.30;;
56363;SDS011;42261;52.094;4.326;2022-12-08T15:14:27;2.58;;;0.47;;
56363;SDS011;42261;52.094;4.326;2022-12-08T15:23:23;1.70;;;0.50;;
56363;SDS011;42261;52.094;4.326;2022-12-08T15:26:09;2.13;;;0.65;;
56363;SDS011;42261;52.094;4.326;2022-12-08T15:29:08;1.50;;;0.70;;
56363;SDS011;42261;52.094;4.326;2022-12-08T15:32:18;4.18;;;0.70;;
56363;SDS011;42261;52.094;4.326;2022-12-08T15:35:04;3.15;;;0.80;;
56363;SDS011;42261;52.094;4.326;2022-12-08T15:37:49;1.23;;;0.57;;
56363;SDS011;42261;52.094;4.326;2022-12-08T15:40:33;2.15;;;0.43;;
56363;SDS011;42261;52.094;4.326;2022-12-08T15:43:17;4.25;;;0.47;;
56363;SDS011;42261;52.094;4.326;2022-12-08T15:46:04;4.60;;;0.75;;
56363;SDS011;42261;52.094;4.326;2022-12-08T15:48:48;1.40;;;0.73;;
56363;SDS011;42261;52.094;4.326;2022-12-08T15:51:33;2.13;;;0.70;;
56363;SDS011;42261;52.094;4.326;2022-12-08T15:54:19;1.05;;;0.60;;
56363;SDS011;42261;52.094;4.326;2022-12-08T15:57:03;3.10;;;1.00;;
56363;SDS011;42261;52.094;4.326;2022-12-08T15:59:48;2.90;;;1.02;;
56363;SDS011;42261;52.094;4.326;2022-12-08T16:02:33;4.47;;;0.68;;
56363;SDS011;42261;52.094;4.326;2022-12-08T16:05:17;4.10;;;0.60;;
56363;SDS011;42261;52.094;4.326;2022-12-08T16:08:22;2.72;;;0.80;;
56363;SDS011;42261;52.094;4.326;2022-12-08T16:11:07;1.63;;;1.13;;
56363;SDS011;42261;52.094;4.326;2022-12-08T16:14:10;0.60;;;0.60;;
56363;SDS011;42261;52.094;4.326;2022-12-08T16:16:54;4.03;;;0.68;;
56363;SDS011;42261;52.094;4.326;2022-12-08T16:19:40;7.38;;;1.50;;
56363;SDS011;42261;52.094;4.326;2022-12-08T16:22:28;5.13;;;0.65;;
56363;SDS011;42261;52.094;4.326;2022-12-08T16:25:15;1.48;;;0.95;;
56363;SDS011;42261;52.094;4.326;2022-12-08T16:28:00;1.52;;;0.30;;
56363;SDS011;42261;52.094;4.326;2022-12-08T16:30:44;4.97;;;0.35;;
56363;SDS011;42261;52.094;4.326;2022-12-08T16:33:28;0.98;;;0.25;;
56363;SDS011;42261;52.094;4.326;2022-12-08T16:36:12;0.80;;;0.22;;
56363;SDS011;42261;52.094;4.326;2022-12-08T16:38:56;1.92;;;0.50;;
56363;SDS011;42261;52.094;4.326;2022-12-08T16:41:41;2.28;;;0.40;;
56363;SDS011;42261;52.094;4.326;2022-12-08T16:44:44;1.33;;;0.50;;
56363;SDS011;42261;52.094;4.326;2022-12-08T16:47:28;1.23;;;0.63;;
56363;SDS011;42261;52.094;4.326;2022-12-08T16:50:22;3.50;;;1.20;;
56363;SDS011;42261;52.094;4.326;2022-12-08T16:53:11;3.72;;;0.80;;
56363;SDS011;42261;52.094;4.326;2022-12-08T16:55:55;2.42;;;1.08;;
56363;SDS011;42261;52.094;4.326;2022-12-08T16:58:40;4.63;;;1.30;;
56363;SDS011;42261;52.094;4.326;2022-12-08T17:01:24;2.17;;;0.90;;
56363;SDS011;42261;52.094;4.326;2022-12-08T17:04:08;5.72;;;2.22;;
56363;SDS011;42261;52.094;4.326;2022-12-08T17:06:52;7.63;;;1.13;;
56363;SDS011;42261;52.094;4.326;2022-12-08T17:09:37;3.60;;;0.90;;
56363;SDS011;42261;52.094;4.326;2022-12-08T17:12:21;2.55;;;0.70;;
56363;SDS011;42261;52.094;4.326;2022-12-08T17:15:07;3.22;;;1.02;;
56363;SDS011;42261;52.094;4.326;2022-12-08T17:17:53;2.38;;;1.15;;
56363;SDS011;42261;52.094;4.326;2022-12-08T17:20:37;1.65;;;0.93;;
56363;SDS011;42261;52.094;4.326;2022-12-08T17:23:23;6.45;;;1.15;;
56363;SDS011;42261;52.094;4.326;2022-12-08T17:26:07;6.50;;;1.10;;
56363;SDS011;42261;52.094;4.326;2022-12-08T17:28:51;6.15;;;1.60;;
56363;SDS011;42261;52.094;4.326;2022-12-08T17:31:36;2.80;;;1.27;;
56363;SDS011;42261;52.094;4.326;2022-12-08T17:34:20;4.50;;;1.15;;
56363;SDS011;42261;52.094;4.326;2022-12-08T17:37:04;3.58;;;0.90;;
56363;SDS011;42261;52.094;4.326;2022-12-08T17:39:49;3.90;;;0.98;;
56363;SDS011;42261;52.094;4.326;2022-12-08T17:42:33;4.30;;;1.70;;
56363;SDS011;42261;52.094;4.326;2022-12-08T17:45:17;3.45;;;1.48;;
56363;SDS011;42261;52.094;4.326;2022-12-08T17:48:02;3.53;;;1.40;;
56363;SDS011;42261;52.094;4.326;2022-12-08T17:50:50;4.20;;;1.50;;
56363;SDS011;42261;52.094;4.326;2022-12-08T17:53:35;2.72;;;1.48;;
56363;SDS011;42261;52.094;4.326;2022-12-08T17:56:22;6.75;;;1.63;;
56363;SDS011;42261;52.094;4.326;2022-12-08T17:59:06;2.53;;;1.55;;
56363;SDS011;42261;52.094;4.326;2022-12-08T18:01:51;3.83;;;1.73;;
56363;SDS011;42261;52.094;4.326;2022-12-08T18:04:36;4.60;;;1.80;;
56363;SDS011;42261;52.094;4.326;2022-12-08T18:07:21;3.88;;;1.85;;
56363;SDS011;42261;52.094;4.326;2022-12-08T18:10:05;3.30;;;1.58;;
56363;SDS011;42261;52.094;4.326;2022-12-08T18:12:50;3.30;;;1.60;;
56363;SDS011;42261;52.094;4.326;2022-12-08T18:15:35;7.32;;;2.42;;
56363;SDS011;42261;52.094;4.326;2022-12-08T18:18:22;11.00;;;3.88;;
56363;SDS011;42261;52.094;4.326;2022-12-08T18:21:06;6.40;;;3.10;;
56363;SDS011;42261;52.094;4.326;2022-12-08T18:23:51;5.28;;;2.70;;
56363;SDS011;42261;52.094;4.326;2022-12-08T18:26:35;6.68;;;2.80;;
56363;SDS011;42261;52.094;4.326;2022-12-08T18:29:20;5.47;;;2.40;;
56363;SDS011;42261;52.094;4.326;2022-12-08T18:32:07;3.42;;;2.30;;
56363;SDS011;42261;52.094;4.326;2022-12-08T18:34:52;4.82;;;1.58;;
56363;SDS011;42261;52.094;4.326;2022-12-08T18:37:36;9.75;;;1.63;;
56363;SDS011;42261;52.094;4.326;2022-12-08T18:40:21;4.00;;;1.02;;
56363;SDS011;42261;52.094;4.326;2022-12-08T18:43:05;2.05;;;0.80;;
56363;SDS011;42261;52.094;4.326;2022-12-08T18:45:49;6.03;;;1.48;;
56363;SDS011;42261;52.094;4.326;2022-12-08T18:48:47;5.60;;;1.50;;